CheckWX is a tool to help pilots better visualize weather data.  It is not intended as a substitute for an official pre-flight weather briefing.

18:49:11 UTC

KJFK TAF
John F Kennedy International Airport
New York, New York, USA
KJFK 201723Z 2018/2124 30011G17KT P6SM SCT250 FM202100 20012KT P6SM SCT250 FM210200 25008KT P6SM FEW250 FM210900 29005KT P6SM FEW250 FM211600 24005KT P6SM FEW250 FM211800 20008KT P6SM SKC

Sep-20@
18:00 UTC

Sep-20 @ 18:00 UTC

Sep-20@
21:00 UTC

Sep-20 @ 21:00 UTC

KJFK 201723Z 2018/2124 30011G17KT P6SM SCT250
Wind
  • 300° at 11 KTS
  • {Gusting to 17 KTS
Cloud Levels
  • Scattered at 25,000' AGL

Sep-20@
21:00 UTC

Sep-20 @ 21:00 UTC

Sep-21@
02:00 UTC

Sep-21 @ 02:00 UTC

FM202100 20012KT P6SM SCT250

From

From Standard forecast or significant change

Wind
  • 200° at 12 KTS
Cloud Levels
  • Scattered at 25,000' AGL

Sep-21@
02:00 UTC

Sep-21 @ 02:00 UTC

Sep-21@
09:00 UTC

Sep-21 @ 09:00 UTC

FM210200 25008KT P6SM FEW250

From

From Standard forecast or significant change

Wind
  • 250° at 8 KTS
Cloud Levels
  • Few at 25,000' AGL

Sep-21@
09:00 UTC

Sep-21 @ 09:00 UTC

Sep-21@
16:00 UTC

Sep-21 @ 16:00 UTC

FM210900 29005KT P6SM FEW250

From

From Standard forecast or significant change

Wind
  • 290° at 5 KTS
Cloud Levels
  • Few at 25,000' AGL

Sep-21@
16:00 UTC

Sep-21 @ 16:00 UTC

Sep-21@
18:00 UTC

Sep-21 @ 18:00 UTC

FM211600 24005KT P6SM FEW250

From

From Standard forecast or significant change

Wind
  • 240° at 5 KTS
Cloud Levels
  • Few at 25,000' AGL

Sep-21@
18:00 UTC

Sep-21 @ 18:00 UTC

Sep-22@
00:00 UTC

Sep-22 @ 00:00 UTC

FM211800 20008KT P6SM SKC

From

From Standard forecast or significant change

Wind
  • 200° at 8 KTS
Cloud Levels
  • Clear skies